createdAt,value
2022-09-13T00:01:58.922Z,10.79
2022-09-13T00:04:25.635Z,10.84
2022-09-13T00:06:52.193Z,10.79
2022-09-13T00:09:18.697Z,10.76
2022-09-13T00:11:45.234Z,10.76
2022-09-13T00:14:13.108Z,10.78
2022-09-13T00:16:39.658Z,10.87
2022-09-13T00:19:06.218Z,10.89
2022-09-13T00:21:32.816Z,10.80
2022-09-13T00:23:59.334Z,10.65
2022-09-13T00:26:27.840Z,10.55
2022-09-13T00:28:56.497Z,10.50
2022-09-13T00:31:26.105Z,10.47
2022-09-13T00:33:53.001Z,10.49
2022-09-13T00:36:19.912Z,10.63
2022-09-13T00:38:46.562Z,10.61
2022-09-13T00:41:15.065Z,10.67
2022-09-13T00:43:45.400Z,10.73
2022-09-13T00:46:16.271Z,10.66
2022-09-13T00:48:46.008Z,10.58
2022-09-13T00:51:13.604Z,10.53
2022-09-13T00:53:44.278Z,10.50
2022-09-13T00:56:15.113Z,10.45
2022-09-13T00:58:45.246Z,10.49
2022-09-13T01:01:14.447Z,10.56
2022-09-13T01:03:42.810Z,10.66
2022-09-13T01:06:14.651Z,10.57
2022-09-13T01:08:45.458Z,10.56
2022-09-13T01:11:20.699Z,10.47
2022-09-13T01:13:47.928Z,10.47
2022-09-13T01:16:14.545Z,10.51
2022-09-13T01:18:41.099Z,10.47
2022-09-13T01:21:42.874Z,10.56
2022-09-13T01:24:23.451Z,10.42
2022-09-13T01:27:23.728Z,10.25
2022-09-13T01:30:10.947Z,10.09
2022-09-13T01:32:51.023Z,10.09
2022-09-13T01:35:28.889Z,10.05
2022-09-13T01:38:02.512Z,10.01
2022-09-13T01:40:43.824Z,9.93
2022-09-13T01:43:22.625Z,9.97
2022-09-13T01:45:56.042Z,10.20
2022-09-13T01:48:30.070Z,10.30
2022-09-13T01:51:04.147Z,10.32
2022-09-13T01:53:35.915Z,10.32
2022-09-13T01:56:10.611Z,10.34
2022-09-13T01:58:41.827Z,10.37
2022-09-13T02:01:15.119Z,10.41
2022-09-13T02:03:47.921Z,10.46
2022-09-13T02:06:20.286Z,10.54
2022-09-13T02:08:51.068Z,10.57
2022-09-13T02:11:18.918Z,10.57
2022-09-13T02:13:49.325Z,10.57
2022-09-13T02:16:26.421Z,10.51
2022-09-13T02:18:57.079Z,10.55
2022-09-13T02:21:28.674Z,10.56
2022-09-13T02:24:00.650Z,10.51
2022-09-13T02:26:29.135Z,10.50
2022-09-13T02:29:00.158Z,10.35
2022-09-13T02:31:33.693Z,10.44
2022-09-13T02:34:04.640Z,10.44
2022-09-13T02:36:35.530Z,10.45
2022-09-13T02:39:04.709Z,10.51
2022-09-13T02:41:37.336Z,10.49
2022-09-13T02:44:11.112Z,10.54
2022-09-13T02:47:09.466Z,10.49
2022-09-13T02:49:47.791Z,10.55
2022-09-13T02:52:23.517Z,10.50
2022-09-13T02:54:57.328Z,10.50
2022-09-13T02:57:29.799Z,10.51
2022-09-13T02:59:56.341Z,10.49
2022-09-13T03:02:33.017Z,10.51
2022-09-13T03:05:00.985Z,10.42
2022-09-13T03:07:28.307Z,10.40
2022-09-13T03:10:00.558Z,10.34
2022-09-13T03:12:43.947Z,10.15
2022-09-13T03:15:19.653Z,10.01
2022-09-13T03:18:00.301Z,9.94
2022-09-13T03:20:40.885Z,9.91
2022-09-13T03:23:21.997Z,9.94
2022-09-13T03:26:08.072Z,9.97
2022-09-13T03:28:43.374Z,9.99
2022-09-13T03:31:21.100Z,9.97
2022-09-13T03:33:56.589Z,9.87
2022-09-13T03:36:33.087Z,9.71
2022-09-13T03:39:11.907Z,9.56
2022-09-13T03:41:46.554Z,9.52
2022-09-13T03:44:16.734Z,9.40
2022-09-13T03:46:46.242Z,9.38
2022-09-13T03:49:15.936Z,9.52
2022-09-13T03:51:45.108Z,9.69
2022-09-13T03:54:19.132Z,9.84
2022-09-13T03:57:07.816Z,9.91
2022-09-13T03:59:34.590Z,9.91
2022-09-13T04:02:01.103Z,9.76
2022-09-13T04:04:28.986Z,9.74
2022-09-13T04:06:55.494Z,9.90
2022-09-13T04:09:22.023Z,9.97
2022-09-13T04:11:48.668Z,9.98
2022-09-13T04:14:15.188Z,9.93
2022-09-13T04:16:42.226Z,9.95
2022-09-13T04:19:08.789Z,9.93
2022-09-13T04:21:36.637Z,9.98
2022-09-13T04:24:03.345Z,9.94
2022-09-13T04:26:29.839Z,9.97
2022-09-13T04:28:56.359Z,10.04
2022-09-13T04:31:22.932Z,10.07
2022-09-13T04:33:49.600Z,9.95
2022-09-13T04:36:16.092Z,9.80
2022-09-13T04:38:46.369Z,9.80
2022-09-13T04:41:12.867Z,9.74
2022-09-13T04:43:39.403Z,9.75
2022-09-13T04:46:05.916Z,9.80
2022-09-13T04:48:32.469Z,9.87
2022-09-13T04:51:02.004Z,9.83
2022-09-13T04:53:28.503Z,9.89
2022-09-13T04:56:00.437Z,9.87
2022-09-13T04:58:26.760Z,9.91
2022-09-13T05:00:53.348Z,9.88
2022-09-13T05:03:19.905Z,9.86
2022-09-13T05:05:46.391Z,9.76
2022-09-13T05:08:12.905Z,9.66
2022-09-13T05:10:39.409Z,9.62
2022-09-13T05:13:07.262Z,9.69
2022-09-13T05:15:33.761Z,9.86
2022-09-13T05:18:00.274Z,9.97
2022-09-13T05:20:26.742Z,9.92
2022-09-13T05:22:53.235Z,9.66
2022-09-13T05:25:22.956Z,9.79
2022-09-13T05:27:51.941Z,9.96
2022-09-13T05:30:19.795Z,10.05
2022-09-13T05:32:46.295Z,10.08
2022-09-13T05:35:12.849Z,10.14
2022-09-13T05:37:39.412Z,10.04
2022-09-13T05:40:11.773Z,10.03
2022-09-13T05:42:38.909Z,10.17
2022-09-13T05:45:06.704Z,10.19
2022-09-13T05:47:34.505Z,10.23
2022-09-13T05:50:39.518Z,10.28
2022-09-13T05:52:52.035Z,10.14
2022-09-13T05:55:18.528Z,10.19
2022-09-13T05:57:45.006Z,10.29
2022-09-13T06:00:12.460Z,10.39
2022-09-13T06:02:40.985Z,10.48
2022-09-13T06:05:08.400Z,10.46
2022-09-13T06:07:34.856Z,10.47
2022-09-13T06:10:01.343Z,10.57
2022-09-13T06:12:27.863Z,10.73
2022-09-13T06:14:54.329Z,10.81
2022-09-13T06:17:20.826Z,10.88
2022-09-13T06:19:48.649Z,10.81
2022-09-13T06:22:15.112Z,10.78
2022-09-13T06:24:41.595Z,11.07
2022-09-13T06:27:08.107Z,11.21
2022-09-13T06:29:34.602Z,11.46
2022-09-13T06:32:01.108Z,11.72
2022-09-13T06:34:31.155Z,11.93
2022-09-13T06:36:59.331Z,12.08
2022-09-13T06:39:25.819Z,12.16
2022-09-13T06:41:52.299Z,12.18
2022-09-13T06:44:18.797Z,12.23
2022-09-13T06:46:45.313Z,12.30
2022-09-13T06:49:11.822Z,12.32
2022-09-13T06:51:38.285Z,12.70
2022-09-13T06:54:06.155Z,12.96
2022-09-13T06:56:34.251Z,13.17
2022-09-13T06:59:02.820Z,13.31
2022-09-13T07:01:31.009Z,13.28
2022-09-13T07:04:01.003Z,13.35
2022-09-13T07:06:29.935Z,13.47
2022-09-13T07:08:58.016Z,13.62
2022-09-13T07:11:29.102Z,13.88
2022-09-13T07:13:57.363Z,13.90
2022-09-13T07:16:25.976Z,14.13
2022-09-13T07:18:53.183Z,14.24
2022-09-13T07:21:20.054Z,14.29
2022-09-13T07:23:46.599Z,14.44
2022-09-13T07:26:13.354Z,14.48
2022-09-13T07:28:43.291Z,14.65
2022-09-13T07:31:12.358Z,14.93
2022-09-13T07:33:40.058Z,14.94
2022-09-13T07:36:07.981Z,15.10
2022-09-13T07:38:35.815Z,15.47
2022-09-13T07:41:03.373Z,15.58
2022-09-13T07:43:29.882Z,15.83
2022-09-13T07:45:59.197Z,15.96
2022-09-13T07:48:30.469Z,15.80
2022-09-13T07:51:01.492Z,15.86
2022-09-13T07:53:28.413Z,15.75
2022-09-13T07:55:59.498Z,15.72
2022-09-13T07:58:26.002Z,15.73
2022-09-13T08:00:52.528Z,15.77
2022-09-13T08:03:20.382Z,15.74
2022-09-13T08:05:46.922Z,15.79
2022-09-13T08:08:13.424Z,15.75
2022-09-13T08:10:40.023Z,15.76
2022-09-13T08:13:06.570Z,15.82
2022-09-13T08:15:33.579Z,15.99
2022-09-13T08:18:00.152Z,15.92
2022-09-13T08:20:28.188Z,16.12
2022-09-13T08:22:55.119Z,16.22
2022-09-13T08:25:21.693Z,16.41
2022-09-13T08:27:48.183Z,16.56
2022-09-13T08:30:14.909Z,16.45
2022-09-13T08:32:41.413Z,16.51
2022-09-13T08:35:08.456Z,16.61
2022-09-13T08:37:36.336Z,16.52
2022-09-13T08:40:03.444Z,16.49
2022-09-13T08:42:50.765Z,16.72
2022-09-13T08:45:17.596Z,16.90
2022-09-13T08:47:50.414Z,16.95
2022-09-13T08:50:21.390Z,17.15
2022-09-13T08:52:58.544Z,17.40
2022-09-13T08:55:36.171Z,17.62
2022-09-13T08:58:12.445Z,17.84
2022-09-13T09:00:40.964Z,18.01
2022-09-13T09:03:19.527Z,18.04
2022-09-13T09:05:48.232Z,17.96
2022-09-13T09:08:29.834Z,17.97
2022-09-13T09:10:59.031Z,17.98
2022-09-13T09:13:29.566Z,18.01
2022-09-13T09:16:00.704Z,18.11
2022-09-13T09:18:30.922Z,18.08
2022-09-13T09:20:59.437Z,17.91
2022-09-13T09:23:31.878Z,18.00
2022-09-13T09:26:14.568Z,17.97
2022-09-13T09:28:41.135Z,17.93
2022-09-13T09:31:12.891Z,18.10
2022-09-13T09:33:55.747Z,18.33
2022-09-13T09:36:31.263Z,18.44
2022-09-13T09:38:59.163Z,18.71
2022-09-13T09:41:30.127Z,18.71
2022-09-13T09:44:06.103Z,18.70
2022-09-13T09:46:37.326Z,18.86
2022-09-13T09:49:13.916Z,18.95
2022-09-13T09:51:40.481Z,18.97
2022-09-13T09:54:11.499Z,18.90
2022-09-13T09:56:53.321Z,19.07
2022-09-13T09:59:26.835Z,19.35
2022-09-13T10:01:53.462Z,19.48
2022-09-13T10:04:22.573Z,19.76
2022-09-13T10:06:49.698Z,19.86
2022-09-13T10:09:19.845Z,19.88
2022-09-13T10:11:49.924Z,19.69
2022-09-13T10:14:37.911Z,19.52
2022-09-13T10:17:13.536Z,19.63
2022-09-13T10:19:40.063Z,19.69
2022-09-13T10:22:11.284Z,19.81
2022-09-13T10:24:39.572Z,19.98
2022-09-13T10:27:20.358Z,20.09
2022-09-13T10:29:49.010Z,20.00
2022-09-13T10:32:15.830Z,19.90
2022-09-13T10:34:45.126Z,19.77
2022-09-13T10:37:16.003Z,19.55
2022-09-13T10:39:55.653Z,19.29
2022-09-13T10:42:25.158Z,19.26
2022-09-13T10:44:55.313Z,19.19
2022-09-13T10:47:25.524Z,19.12
2022-09-13T10:49:54.721Z,19.06
2022-09-13T10:52:30.342Z,19.07
2022-09-13T10:55:23.428Z,19.09
2022-09-13T10:57:51.699Z,18.96
2022-09-13T11:00:20.343Z,18.95
2022-09-13T11:03:05.993Z,18.92
2022-09-13T11:05:39.595Z,18.84
2022-09-13T11:08:18.822Z,18.80
2022-09-13T11:10:58.545Z,18.75
2022-09-13T11:13:34.631Z,18.95
2022-09-13T11:16:15.719Z,18.86
2022-09-13T11:18:59.280Z,18.95
2022-09-13T11:21:40.126Z,18.85
2022-09-13T11:24:24.167Z,18.87
2022-09-13T11:27:00.181Z,18.91
2022-09-13T11:29:40.122Z,18.97
2022-09-13T11:32:20.966Z,19.02
2022-09-13T11:35:02.527Z,19.00
2022-09-13T11:37:42.214Z,18.90
2022-09-13T11:40:28.375Z,18.79
2022-09-13T11:43:08.770Z,18.76
2022-09-13T11:45:42.530Z,18.82
2022-09-13T11:48:30.446Z,18.80
2022-09-13T11:51:06.435Z,18.85
2022-09-13T11:53:57.470Z,18.80
2022-09-13T11:56:29.246Z,18.83
2022-09-13T11:59:00.904Z,18.84
2022-09-13T12:01:33.903Z,18.83
2022-09-13T12:04:03.893Z,19.06
2022-09-13T12:06:35.492Z,19.32
2022-09-13T12:09:07.333Z,19.61
2022-09-13T12:11:34.736Z,19.93
2022-09-13T12:14:05.049Z,20.10
2022-09-13T12:16:36.429Z,20.15
2022-09-13T12:19:07.280Z,20.18
2022-09-13T12:21:38.011Z,20.32
2022-09-13T12:24:12.962Z,20.47
2022-09-13T12:26:44.814Z,20.60
2022-09-13T12:29:17.960Z,20.60
2022-09-13T12:31:44.814Z,20.64
2022-09-13T12:34:20.085Z,20.54
2022-09-13T12:37:09.910Z,20.60
2022-09-13T12:40:11.700Z,20.86
2022-09-13T12:43:06.599Z,20.97
2022-09-13T12:45:47.176Z,20.79
2022-09-13T12:48:38.818Z,20.57
2022-09-13T12:51:15.311Z,20.48
2022-09-13T12:54:30.397Z,20.30
2022-09-13T12:57:10.569Z,20.15
2022-09-13T12:59:54.874Z,20.08
2022-09-13T13:02:30.896Z,19.97
2022-09-13T13:05:01.208Z,19.85
2022-09-13T13:07:30.418Z,19.83
2022-09-13T13:09:57.949Z,19.73
2022-09-13T13:12:30.920Z,19.69
2022-09-13T13:14:59.026Z,19.73
2022-09-13T13:17:44.061Z,19.86
2022-09-13T13:20:45.846Z,19.92
2022-09-13T13:23:19.745Z,19.98
2022-09-13T13:26:07.817Z,19.91
2022-09-13T13:29:17.720Z,19.87
2022-09-13T13:32:09.214Z,19.85
2022-09-13T13:34:43.586Z,19.93
2022-09-13T13:37:33.905Z,19.90
2022-09-13T13:43:11.600Z,19.90
2022-09-13T13:45:38.197Z,19.84
2022-09-13T13:48:11.507Z,19.88
2022-09-13T13:51:17.747Z,19.66
2022-09-13T13:53:48.483Z,19.60
2022-09-13T13:56:22.317Z,19.57
2022-09-13T13:58:57.324Z,19.51
2022-09-13T14:01:26.739Z,19.40
2022-09-13T14:04:27.687Z,19.33
2022-09-13T14:07:06.530Z,19.27
2022-09-13T14:09:47.186Z,19.19
2022-09-13T14:12:44.556Z,19.15
2022-09-13T14:15:26.467Z,19.18
2022-09-13T14:18:16.869Z,19.20
2022-09-13T14:20:58.187Z,19.06
2022-09-13T14:23:26.073Z,19.11
2022-09-13T14:25:55.947Z,19.07
2022-09-13T14:28:23.338Z,19.12
2022-09-13T14:30:54.458Z,19.11
2022-09-13T14:33:25.985Z,19.09
2022-09-13T14:36:02.197Z,18.97
2022-09-13T14:38:31.863Z,18.86
2022-09-13T14:41:00.174Z,18.83
2022-09-13T14:43:28.493Z,18.83
2022-09-13T14:46:01.436Z,18.87
2022-09-13T14:48:36.238Z,18.92
2022-09-13T14:51:08.665Z,18.78
2022-09-13T14:53:36.792Z,18.80
2022-09-13T14:56:06.978Z,18.75
2022-09-13T14:58:42.238Z,18.80
2022-09-13T15:01:11.430Z,18.76
2022-09-13T15:03:41.501Z,18.80
2022-09-13T15:06:19.338Z,18.78
2022-09-13T15:08:48.663Z,18.74
2022-09-13T15:11:26.607Z,18.62
2022-09-13T15:14:02.046Z,18.72
2022-09-13T15:16:30.581Z,18.81
2022-09-13T15:19:17.180Z,18.92
2022-09-13T15:21:43.810Z,18.91
2022-09-13T15:24:21.522Z,18.87
2022-09-13T15:26:48.073Z,18.98
2022-09-13T15:29:19.250Z,18.91
2022-09-13T15:31:45.816Z,18.88
2022-09-13T15:34:19.822Z,18.98
2022-09-13T15:36:47.563Z,19.00
2022-09-13T15:39:17.743Z,19.06
2022-09-13T15:41:52.458Z,19.11
2022-09-13T15:44:19.092Z,19.09
2022-09-13T15:46:48.582Z,19.16
2022-09-13T15:49:16.819Z,19.10
2022-09-13T15:51:44.379Z,18.95
2022-09-13T15:54:12.521Z,18.92
2022-09-13T15:56:43.692Z,18.81
2022-09-13T15:59:13.445Z,18.83
2022-09-13T16:01:40.439Z,18.86
2022-09-13T16:04:07.076Z,18.89
2022-09-13T16:06:33.907Z,18.77
2022-09-13T16:09:00.484Z,18.81
2022-09-13T16:11:27.082Z,18.82
2022-09-13T16:13:54.948Z,18.74
2022-09-13T16:16:21.541Z,18.78
2022-09-13T16:18:48.128Z,18.66
2022-09-13T16:21:14.672Z,18.69
2022-09-13T16:23:41.209Z,18.62
2022-09-13T16:26:07.751Z,18.60
2022-09-13T16:28:34.272Z,18.60
2022-09-13T16:31:02.237Z,18.62
2022-09-13T16:33:28.827Z,18.63
2022-09-13T16:35:58.048Z,18.58
2022-09-13T16:38:28.076Z,18.58
2022-09-13T16:40:54.604Z,18.47
2022-09-13T16:43:22.143Z,18.43
2022-09-13T16:45:48.709Z,18.45
2022-09-13T16:48:16.666Z,18.43
2022-09-13T16:50:43.172Z,18.37
2022-09-13T16:53:09.705Z,18.36
2022-09-13T16:55:36.429Z,18.31
2022-09-13T16:58:03.103Z,18.28
2022-09-13T17:00:29.670Z,18.21
2022-09-13T17:02:56.367Z,18.19
2022-09-13T17:05:25.112Z,18.14
2022-09-13T17:07:52.752Z,18.09
2022-09-13T17:10:20.488Z,18.10
2022-09-13T17:12:47.079Z,18.05
2022-09-13T17:15:13.905Z,17.98
2022-09-13T17:17:40.439Z,17.96
2022-09-13T17:20:09.447Z,17.90
2022-09-13T17:22:37.432Z,17.87
2022-09-13T17:25:05.092Z,17.84
2022-09-13T17:27:31.626Z,17.78
2022-09-13T17:29:58.222Z,17.75
2022-09-13T17:32:24.798Z,17.74
2022-09-13T17:34:51.361Z,17.72
2022-09-13T17:37:17.877Z,17.69
2022-09-13T17:39:46.124Z,17.69
2022-09-13T17:42:12.769Z,17.67
2022-09-13T17:44:39.369Z,17.61
2022-09-13T17:47:06.199Z,17.57
2022-09-13T17:49:32.730Z,17.52
2022-09-13T17:51:59.236Z,17.41
2022-09-13T17:54:25.781Z,17.42
2022-09-13T17:56:53.640Z,17.42
2022-09-13T17:59:21.852Z,17.43
2022-09-13T18:01:49.933Z,17.42
2022-09-13T18:04:19.990Z,17.34
2022-09-13T18:06:46.837Z,17.26
2022-09-13T18:09:14.551Z,17.22
2022-09-13T18:11:41.311Z,17.16
2022-09-13T18:14:11.542Z,17.16
2022-09-13T18:16:38.062Z,17.10
2022-09-13T18:19:04.705Z,17.06
2022-09-13T18:21:31.255Z,16.97
2022-09-13T18:23:59.460Z,16.92
2022-09-13T18:26:27.578Z,16.85
2022-09-13T18:28:55.411Z,16.89
2022-09-13T18:31:24.679Z,16.88
2022-09-13T18:33:55.250Z,16.84
2022-09-13T18:36:21.903Z,16.74
2022-09-13T18:38:49.281Z,16.74
2022-09-13T18:41:18.672Z,16.71
2022-09-13T18:43:46.441Z,16.69
2022-09-13T18:46:14.666Z,16.66
2022-09-13T18:48:45.615Z,16.63
2022-09-13T18:51:15.338Z,16.61
2022-09-13T18:53:42.399Z,16.61
2022-09-13T18:56:11.112Z,16.60
2022-09-13T18:58:39.588Z,16.62
2022-09-13T19:01:08.332Z,16.67
2022-09-13T19:03:35.997Z,16.69
2022-09-13T19:06:12.044Z,16.67
2022-09-13T19:08:38.731Z,16.67
2022-09-13T19:11:06.259Z,16.68
2022-09-13T19:13:33.488Z,16.63
2022-09-13T19:16:01.096Z,16.64
2022-09-13T19:18:28.107Z,16.64
2022-09-13T19:21:01.398Z,16.62
2022-09-13T19:23:48.891Z,16.58
2022-09-13T19:26:17.912Z,16.56
2022-09-13T19:28:46.436Z,16.53
2022-09-13T19:31:14.173Z,16.52
2022-09-13T19:33:41.548Z,16.52
2022-09-13T19:36:11.156Z,16.52
2022-09-13T19:38:39.492Z,16.51
2022-09-13T19:41:08.204Z,16.51
2022-09-13T19:43:36.501Z,16.51
2022-09-13T19:46:05.043Z,16.51
2022-09-13T19:48:38.637Z,16.46
2022-09-13T19:51:08.366Z,16.45
2022-09-13T19:53:55.860Z,16.47
2022-09-13T19:56:26.463Z,16.40
2022-09-13T19:58:53.546Z,16.35
2022-09-13T20:01:22.262Z,16.34
2022-09-13T20:03:54.158Z,16.25
2022-09-13T20:06:21.565Z,16.27
2022-09-13T20:08:48.065Z,16.17
2022-09-13T20:11:14.898Z,16.16
2022-09-13T20:13:44.336Z,16.12
2022-09-13T20:16:17.947Z,16.13
2022-09-13T20:18:45.044Z,16.17
2022-09-13T20:21:12.607Z,16.09
2022-09-13T20:23:41.886Z,16.03
2022-09-13T20:26:14.399Z,16.03
2022-09-13T20:28:40.936Z,16.07
2022-09-13T20:31:09.861Z,16.06
2022-09-13T20:33:36.567Z,16.01
2022-09-13T20:36:03.712Z,15.90
2022-09-13T20:38:30.215Z,15.84
2022-09-13T20:41:02.416Z,15.79
2022-09-13T20:43:28.971Z,15.77
2022-09-13T20:45:55.952Z,15.72
2022-09-13T20:48:24.254Z,15.67
2022-09-13T20:50:56.372Z,15.70
2022-09-13T20:53:22.889Z,15.72
2022-09-13T20:55:49.411Z,15.73
2022-09-13T20:58:15.915Z,15.73
2022-09-13T21:00:42.439Z,15.69
2022-09-13T21:03:08.967Z,15.60
2022-09-13T21:05:37.815Z,15.61
2022-09-13T21:08:04.540Z,15.53
2022-09-13T21:10:31.057Z,15.39
2022-09-13T21:12:57.578Z,15.35
2022-09-13T21:15:24.082Z,15.23
2022-09-13T21:17:50.605Z,15.15
2022-09-13T21:20:17.114Z,15.12
2022-09-13T21:22:44.999Z,15.09
2022-09-13T21:25:11.527Z,15.04
2022-09-13T21:27:38.071Z,15.00
2022-09-13T21:30:05.645Z,14.92
2022-09-13T21:32:32.223Z,14.90
2022-09-13T21:34:58.735Z,14.90
2022-09-13T21:37:25.268Z,14.91
2022-09-13T21:39:53.235Z,14.91
2022-09-13T21:42:19.779Z,14.92
2022-09-13T21:44:46.271Z,14.87
2022-09-13T21:47:12.780Z,14.83
2022-09-13T21:49:39.321Z,14.83
2022-09-13T21:52:05.855Z,14.78
2022-09-13T21:54:32.363Z,14.76
2022-09-13T21:57:00.241Z,14.73
2022-09-13T21:59:26.797Z,14.72
2022-09-13T22:01:53.619Z,14.67
2022-09-13T22:04:21.762Z,14.60
2022-09-13T22:06:49.933Z,14.57
2022-09-13T22:09:16.488Z,14.51
2022-09-13T22:11:44.819Z,14.55
2022-09-13T22:14:14.446Z,14.54
2022-09-13T22:16:42.659Z,14.57
2022-09-13T22:19:12.222Z,14.57
2022-09-13T22:21:41.233Z,14.58
2022-09-13T22:24:09.869Z,14.53
2022-09-13T22:26:38.954Z,14.60
2022-09-13T22:29:06.218Z,14.61
2022-09-13T22:31:36.367Z,14.59
2022-09-13T22:34:03.855Z,14.59
2022-09-13T22:36:30.661Z,14.53
2022-09-13T22:38:57.606Z,14.54
2022-09-13T22:41:26.417Z,14.56
2022-09-13T22:43:53.685Z,14.55
2022-09-13T22:46:21.806Z,14.55
2022-09-13T22:48:50.163Z,14.54
2022-09-13T22:51:18.207Z,14.56
2022-09-13T22:53:46.786Z,14.60
2022-09-13T22:56:15.144Z,14.61
2022-09-13T22:58:42.468Z,14.60
2022-09-13T23:01:10.957Z,14.52
2022-09-13T23:03:38.815Z,14.54
2022-09-13T23:06:07.439Z,14.56
2022-09-13T23:08:34.884Z,14.60
2022-09-13T23:11:08.897Z,14.59
2022-09-13T23:13:35.710Z,14.61
2022-09-13T23:16:02.303Z,14.60
2022-09-13T23:18:28.823Z,14.59
2022-09-13T23:20:56.096Z,14.58
2022-09-13T23:23:24.198Z,14.62
2022-09-13T23:25:51.104Z,14.61
2022-09-13T23:28:17.662Z,14.60
2022-09-13T23:30:44.180Z,14.64
2022-09-13T23:33:10.730Z,14.62
2022-09-13T23:35:37.304Z,14.58
2022-09-13T23:38:04.014Z,14.52
2022-09-13T23:40:32.074Z,14.55
2022-09-13T23:42:58.686Z,14.59
2022-09-13T23:45:25.271Z,14.60
2022-09-13T23:47:51.905Z,14.59
2022-09-13T23:50:18.443Z,14.60
2022-09-13T23:52:44.970Z,14.57
2022-09-13T23:55:11.495Z,14.51
2022-09-13T23:57:39.434Z,14.52
